Terminal Aerodrome Forecast
Issued by NWS

Home | Current Version | Previous Version | Text Only | Print | Product List | Glossary On
Versions: 1 2 3 4 5 6 7 8 9 10 11 12 13 14 15 16 17 18 19 20 21 22 23
000
FTUS42 KILM 261744 CCA
TAFCRE
TAF COR
KCRE 261744Z 2618/2718 19012G16KT P6SM SCT030 BKN100
     FM270400 22009KT 3SM -SHRA BR SCT015 BKN025
      TEMPO 2710/2714 1SM TSRA SCT007 BKN012CB
     FM271700 30013KT 2SM -RA BR OVC015=

USA.gov is the U.S. government's official web portal to all federal, state and local government web resources and services.